Stony Rapids Airport
CYSF : rendu visible

Aérodrome :











RETROUVEZ-NOUS SUR...

 
LOGIN :

S'inscrire | Disclaimer

   EN    FR    IT 

 









Légende :    VFR   VFR Marginal   IFR   IFR Intensif   IFR Très Intensif
Visi : 
Plafond : 
>= 8 km
>= 3000ft
5 à 8 km
1000 à 3000 ft
1500m à 5 km
500 à 1000 ft
800 à 1500m
200 à 500 ft
< 800m
< 200 ft
Symboles :   Orages  Brouillard  Fortes neiges  Fortes précipitations  Vent > 20 kt






- Altitude de l'aérodrome : 805 ft
- Code IATA : YSF


CYSF - Stony Rapids

DERNIER METAR :
  • 040700Z AUTO 08006KT 9SM BKN150 08/04 A2984 RMK SLP114

METARs EXPIRÉS :
  • 040600Z AUTO 07007KT 9SM BKN160 10/04 A2983 RMK SLP110
  • 040500Z AUTO 09004KT 9SM BKN160 OVC190 11/06 A2981 RMK SLP103

TAF TAF CYSF
Valide du 04 à 06h jusqu'au 04 à 18h UTC


040538Z 0406/0418 09005KT P6SM BKN160
FM040800 06008KT P6SM FEW010 SCT060 BKN160
TEMPO 0408/0414 SCT010 BKN060 OVC160
FM041400 08008KT P6SM BKN080 RMK FCST BASED ON AUTO OBS. NXT FCST BY 041200Z
FIR CZEG / Amérique du Nord



MET'MAP, la Météo Aéronautique d'un coup d'oeil ! - Copyright ORBIFLY Décembre 2007 - Disclaimer

ORBIFLY MET'MAP TEAM :

Programmation & Développement : Alexandra Zaïnal
Sur une idée originale de : Baudouin d'Aumeries
Assistance à la programmation : Marc-Olivier Méhu
Soutien technique & logistique : Manuel Goepfert

Contact : metmap@orbifly.com




SOURCES & CREDITS :

   NOAA       Earth
Advisory